sensor_id;sensor_type;location;lat;lon;timestamp;temperature;humidity
61201;DHT22;47065;52.898;6.992;2023-03-01T00:02:02;-1.10;99.90
61201;DHT22;47065;52.898;6.992;2023-03-01T00:04:27;-1.10;99.90
61201;DHT22;47065;52.898;6.992;2023-03-01T00:06:54;-1.20;99.90
61201;DHT22;47065;52.898;6.992;2023-03-01T00:09:19;-1.20;99.90
61201;DHT22;47065;52.898;6.992;2023-03-01T00:11:45;-1.20;99.90
61201;DHT22;47065;52.898;6.992;2023-03-01T00:14:11;-1.20;99.90
61201;DHT22;47065;52.898;6.992;2023-03-01T00:16:39;-1.30;99.90
61201;DHT22;47065;52.898;6.992;2023-03-01T00:19:07;-1.20;99.90
61201;DHT22;47065;52.898;6.992;2023-03-01T00:21:33;-1.30;99.90
61201;DHT22;47065;52.898;6.992;2023-03-01T00:24:01;-1.30;99.90
61201;DHT22;47065;52.898;6.992;2023-03-01T00:26:27;-1.30;99.90
61201;DHT22;47065;52.898;6.992;2023-03-01T00:28:53;-1.30;99.90
61201;DHT22;47065;52.898;6.992;2023-03-01T00:31:25;-1.30;99.90
61201;DHT22;47065;52.898;6.992;2023-03-01T00:34:04;-1.30;99.90
61201;DHT22;47065;52.898;6.992;2023-03-01T00:36:33;-1.30;99.90
61201;DHT22;47065;52.898;6.992;2023-03-01T00:38:59;-1.30;99.90
61201;DHT22;47065;52.898;6.992;2023-03-01T00:41:25;-1.40;99.90
61201;DHT22;47065;52.898;6.992;2023-03-01T00:43:52;-1.40;99.90
61201;DHT22;47065;52.898;6.992;2023-03-01T00:46:24;-1.40;99.90
61201;DHT22;47065;52.898;6.992;2023-03-01T00:48:50;-1.40;99.90
61201;DHT22;47065;52.898;6.992;2023-03-01T00:51:21;-1.40;99.90
61201;DHT22;47065;52.898;6.992;2023-03-01T00:53:50;-1.40;99.90
61201;DHT22;47065;52.898;6.992;2023-03-01T00:56:16;-1.40;99.90
61201;DHT22;47065;52.898;6.992;2023-03-01T00:58:42;-1.40;99.90
61201;DHT22;47065;52.898;6.992;2023-03-01T01:01:13;-1.40;99.90
61201;DHT22;47065;52.898;6.992;2023-03-01T01:03:53;-1.50;99.90
61201;DHT22;47065;52.898;6.992;2023-03-01T01:06:28;-1.50;99.90
61201;DHT22;47065;52.898;6.992;2023-03-01T01:08:55;-1.50;99.90
61201;DHT22;47065;52.898;6.992;2023-03-01T01:11:22;-1.50;99.90
61201;DHT22;47065;52.898;6.992;2023-03-01T01:13:49;-1.60;99.90
61201;DHT22;47065;52.898;6.992;2023-03-01T01:16:17;-1.60;99.90
61201;DHT22;47065;52.898;6.992;2023-03-01T01:18:43;-1.60;99.90
61201;DHT22;47065;52.898;6.992;2023-03-01T01:21:12;-1.60;99.90
61201;DHT22;47065;52.898;6.992;2023-03-01T01:23:39;-1.60;99.90
61201;DHT22;47065;52.898;6.992;2023-03-01T01:26:10;-1.60;99.90
61201;DHT22;47065;52.898;6.992;2023-03-01T01:28:36;-1.60;99.90
61201;DHT22;47065;52.898;6.992;2023-03-01T01:31:02;-1.60;99.90
61201;DHT22;47065;52.898;6.992;2023-03-01T01:33:27;-1.50;99.90
61201;DHT22;47065;52.898;6.992;2023-03-01T01:35:53;-1.50;99.90
61201;DHT22;47065;52.898;6.992;2023-03-01T01:38:19;-1.50;99.90
61201;DHT22;47065;52.898;6.992;2023-03-01T01:40:46;-1.50;99.90
61201;DHT22;47065;52.898;6.992;2023-03-01T01:43:27;-1.60;99.90
61201;DHT22;47065;52.898;6.992;2023-03-01T01:45:59;-1.60;99.90
61201;DHT22;47065;52.898;6.992;2023-03-01T01:48:32;-1.60;99.90
61201;DHT22;47065;52.898;6.992;2023-03-01T01:51:07;-1.60;99.90
61201;DHT22;47065;52.898;6.992;2023-03-01T01:53:35;-1.60;99.90
61201;DHT22;47065;52.898;6.992;2023-03-01T01:56:02;-1.70;99.90
61201;DHT22;47065;52.898;6.992;2023-03-01T01:58:29;-1.70;99.90
61201;DHT22;47065;52.898;6.992;2023-03-01T02:00:55;-1.70;99.90
61201;DHT22;47065;52.898;6.992;2023-03-01T02:03:29;-1.80;99.90
61201;DHT22;47065;52.898;6.992;2023-03-01T02:06:12;-1.80;99.90
61201;DHT22;47065;52.898;6.992;2023-03-01T02:08:40;-1.80;99.90
61201;DHT22;47065;52.898;6.992;2023-03-01T02:11:08;-1.80;99.90
61201;DHT22;47065;52.898;6.992;2023-03-01T02:13:36;-1.80;99.90
61201;DHT22;47065;52.898;6.992;2023-03-01T02:16:10;-1.90;99.90
61201;DHT22;47065;52.898;6.992;2023-03-01T02:18:37;-1.90;99.90
61201;DHT22;47065;52.898;6.992;2023-03-01T02:23:54;-2.00;99.90
61201;DHT22;47065;52.898;6.992;2023-03-01T02:26:35;-2.00;99.90
61201;DHT22;47065;52.898;6.992;2023-03-01T02:29:05;-2.00;99.90
61201;DHT22;47065;52.898;6.992;2023-03-01T02:31:32;-2.00;99.90
61201;DHT22;47065;52.898;6.992;2023-03-01T02:34:16;-2.00;99.90
61201;DHT22;47065;52.898;6.992;2023-03-01T02:39:20;-2.00;99.90
61201;DHT22;47065;52.898;6.992;2023-03-01T02:41:50;-2.00;99.90
61201;DHT22;47065;52.898;6.992;2023-03-01T02:44:16;-2.10;99.90
61201;DHT22;47065;52.898;6.992;2023-03-01T02:46:55;-2.00;99.90
61201;DHT22;47065;52.898;6.992;2023-03-01T02:49:32;-2.10;99.90
61201;DHT22;47065;52.898;6.992;2023-03-01T02:57:08;-2.10;99.90
61201;DHT22;47065;52.898;6.992;2023-03-01T02:59:35;-2.10;99.90
61201;DHT22;47065;52.898;6.992;2023-03-01T03:02:06;-2.10;99.90
61201;DHT22;47065;52.898;6.992;2023-03-01T03:04:31;-2.10;99.90
61201;DHT22;47065;52.898;6.992;2023-03-01T03:06:57;-2.10;99.90
61201;DHT22;47065;52.898;6.992;2023-03-01T03:09:23;-2.10;99.90
61201;DHT22;47065;52.898;6.992;2023-03-01T03:11:49;-2.10;99.90
61201;DHT22;47065;52.898;6.992;2023-03-01T03:14:16;-2.10;99.90
61201;DHT22;47065;52.898;6.992;2023-03-01T03:16:48;-2.10;99.90
61201;DHT22;47065;52.898;6.992;2023-03-01T03:19:14;-2.20;99.90
61201;DHT22;47065;52.898;6.992;2023-03-01T03:21:41;-2.20;99.90
61201;DHT22;47065;52.898;6.992;2023-03-01T03:24:08;-2.20;99.90
61201;DHT22;47065;52.898;6.992;2023-03-01T03:26:33;-2.20;99.90
61201;DHT22;47065;52.898;6.992;2023-03-01T03:28:59;-2.20;99.90
61201;DHT22;47065;52.898;6.992;2023-03-01T03:31:25;-2.20;99.90
61201;DHT22;47065;52.898;6.992;2023-03-01T03:33:51;-2.30;99.90
61201;DHT22;47065;52.898;6.992;2023-03-01T03:36:20;-2.30;99.90
61201;DHT22;47065;52.898;6.992;2023-03-01T03:38:46;-2.30;99.90
61201;DHT22;47065;52.898;6.992;2023-03-01T03:41:12;-2.30;99.90
61201;DHT22;47065;52.898;6.992;2023-03-01T03:43:39;-2.30;99.90
61201;DHT22;47065;52.898;6.992;2023-03-01T03:46:06;-2.30;99.90
61201;DHT22;47065;52.898;6.992;2023-03-01T03:48:38;-2.20;99.90
61201;DHT22;47065;52.898;6.992;2023-03-01T03:51:04;-2.30;99.90
61201;DHT22;47065;52.898;6.992;2023-03-01T03:53:33;-2.20;99.90
61201;DHT22;47065;52.898;6.992;2023-03-01T03:55:59;-2.30;99.90
61201;DHT22;47065;52.898;6.992;2023-03-01T03:58:25;-2.20;99.90
61201;DHT22;47065;52.898;6.992;2023-03-01T04:00:54;-2.20;99.90
61201;DHT22;47065;52.898;6.992;2023-03-01T04:03:22;-2.30;99.90
61201;DHT22;47065;52.898;6.992;2023-03-01T04:05:48;-2.20;99.90
61201;DHT22;47065;52.898;6.992;2023-03-01T04:08:16;-2.30;99.90
61201;DHT22;47065;52.898;6.992;2023-03-01T04:10:46;-2.30;99.90
61201;DHT22;47065;52.898;6.992;2023-03-01T04:13:15;-2.30;99.90
61201;DHT22;47065;52.898;6.992;2023-03-01T04:15:41;-2.30;99.90
61201;DHT22;47065;52.898;6.992;2023-03-01T04:18:14;-2.30;99.90
61201;DHT22;47065;52.898;6.992;2023-03-01T04:20:41;-2.40;99.90
61201;DHT22;47065;52.898;6.992;2023-03-01T04:23:08;-2.40;99.90
61201;DHT22;47065;52.898;6.992;2023-03-01T04:25:59;-2.50;99.90
61201;DHT22;47065;52.898;6.992;2023-03-01T04:30:57;-2.60;99.90
61201;DHT22;47065;52.898;6.992;2023-03-01T04:33:24;-2.70;99.90
61201;DHT22;47065;52.898;6.992;2023-03-01T04:35:50;-2.70;99.90
61201;DHT22;47065;52.898;6.992;2023-03-01T04:38:17;-2.70;99.90
61201;DHT22;47065;52.898;6.992;2023-03-01T04:40:42;-2.80;99.90
61201;DHT22;47065;52.898;6.992;2023-03-01T04:43:09;-2.80;99.90
61201;DHT22;47065;52.898;6.992;2023-03-01T04:45:35;-2.80;99.90
61201;DHT22;47065;52.898;6.992;2023-03-01T04:48:02;-2.80;99.90
61201;DHT22;47065;52.898;6.992;2023-03-01T04:50:28;-2.80;99.90
61201;DHT22;47065;52.898;6.992;2023-03-01T04:52:54;-2.80;99.90
61201;DHT22;47065;52.898;6.992;2023-03-01T04:55:27;-2.80;99.90
61201;DHT22;47065;52.898;6.992;2023-03-01T04:57:54;-2.80;99.90
61201;DHT22;47065;52.898;6.992;2023-03-01T05:00:20;-2.80;99.90
61201;DHT22;47065;52.898;6.992;2023-03-01T05:02:56;-2.80;99.90
61201;DHT22;47065;52.898;6.992;2023-03-01T05:05:31;-2.80;99.90
61201;DHT22;47065;52.898;6.992;2023-03-01T05:07:59;-2.80;99.90
61201;DHT22;47065;52.898;6.992;2023-03-01T05:10:26;-2.80;99.90
61201;DHT22;47065;52.898;6.992;2023-03-01T05:12:54;-2.80;99.90
61201;DHT22;47065;52.898;6.992;2023-03-01T05:15:20;-2.80;99.90
61201;DHT22;47065;52.898;6.992;2023-03-01T05:17:51;-2.80;99.90
61201;DHT22;47065;52.898;6.992;2023-03-01T05:20:17;-2.80;99.90
61201;DHT22;47065;52.898;6.992;2023-03-01T05:22:43;-2.80;99.90
61201;DHT22;47065;52.898;6.992;2023-03-01T05:25:09;-2.80;99.90
61201;DHT22;47065;52.898;6.992;2023-03-01T05:27:35;-2.80;99.90
61201;DHT22;47065;52.898;6.992;2023-03-01T05:30:02;-2.90;99.90
61201;DHT22;47065;52.898;6.992;2023-03-01T05:32:40;-2.90;99.90
61201;DHT22;47065;52.898;6.992;2023-03-01T05:35:06;-2.90;99.90
61201;DHT22;47065;52.898;6.992;2023-03-01T05:37:31;-2.90;99.90
61201;DHT22;47065;52.898;6.992;2023-03-01T05:39:57;-2.90;99.90
61201;DHT22;47065;52.898;6.992;2023-03-01T05:42:23;-2.90;99.90
61201;DHT22;47065;52.898;6.992;2023-03-01T05:44:48;-2.90;99.90
61201;DHT22;47065;52.898;6.992;2023-03-01T05:47:14;-2.90;99.90
61201;DHT22;47065;52.898;6.992;2023-03-01T05:49:40;-3.00;99.90
61201;DHT22;47065;52.898;6.992;2023-03-01T05:52:05;-3.00;99.90
61201;DHT22;47065;52.898;6.992;2023-03-01T05:54:31;-2.90;99.90
61201;DHT22;47065;52.898;6.992;2023-03-01T05:56:57;-3.00;99.90
61201;DHT22;47065;52.898;6.992;2023-03-01T05:59:22;-3.00;99.90
61201;DHT22;47065;52.898;6.992;2023-03-01T06:01:48;-2.90;99.90
61201;DHT22;47065;52.898;6.992;2023-03-01T06:04:14;-2.90;99.90
61201;DHT22;47065;52.898;6.992;2023-03-01T06:06:39;-2.90;99.90
61201;DHT22;47065;52.898;6.992;2023-03-01T06:09:06;-2.90;99.90
61201;DHT22;47065;52.898;6.992;2023-03-01T06:11:34;-2.90;99.90
61201;DHT22;47065;52.898;6.992;2023-03-01T06:14:00;-2.90;99.90
61201;DHT22;47065;52.898;6.992;2023-03-01T06:16:25;-2.90;99.90
61201;DHT22;47065;52.898;6.992;2023-03-01T06:18:51;-2.90;99.90
61201;DHT22;47065;52.898;6.992;2023-03-01T06:21:17;-2.90;99.90
61201;DHT22;47065;52.898;6.992;2023-03-01T06:23:42;-2.90;99.90
61201;DHT22;47065;52.898;6.992;2023-03-01T06:26:09;-2.90;99.90
61201;DHT22;47065;52.898;6.992;2023-03-01T06:28:35;-2.90;99.90
61201;DHT22;47065;52.898;6.992;2023-03-01T06:31:01;-3.00;99.90
61201;DHT22;47065;52.898;6.992;2023-03-01T06:33:26;-3.00;99.90
61201;DHT22;47065;52.898;6.992;2023-03-01T06:35:54;-3.00;99.90
61201;DHT22;47065;52.898;6.992;2023-03-01T06:38:21;-2.90;99.90
61201;DHT22;47065;52.898;6.992;2023-03-01T06:40:51;-3.00;99.90
61201;DHT22;47065;52.898;6.992;2023-03-01T06:43:17;-3.00;99.90
61201;DHT22;47065;52.898;6.992;2023-03-01T06:45:43;-3.00;99.90
61201;DHT22;47065;52.898;6.992;2023-03-01T06:48:08;-3.00;99.90
61201;DHT22;47065;52.898;6.992;2023-03-01T06:50:34;-3.00;99.90
61201;DHT22;47065;52.898;6.992;2023-03-01T06:53:01;-3.00;99.90
61201;DHT22;47065;52.898;6.992;2023-03-01T06:55:27;-3.00;99.90
61201;DHT22;47065;52.898;6.992;2023-03-01T06:57:57;-3.00;99.90
61201;DHT22;47065;52.898;6.992;2023-03-01T07:00:23;-2.90;99.90
61201;DHT22;47065;52.898;6.992;2023-03-01T07:02:49;-2.90;99.90
61201;DHT22;47065;52.898;6.992;2023-03-01T07:05:15;-2.90;99.90
61201;DHT22;47065;52.898;6.992;2023-03-01T07:07:40;-2.90;99.90
61201;DHT22;47065;52.898;6.992;2023-03-01T07:10:06;-2.90;99.90
61201;DHT22;47065;52.898;6.992;2023-03-01T07:12:32;-2.80;99.90
61201;DHT22;47065;52.898;6.992;2023-03-01T07:14:58;-2.80;99.90
61201;DHT22;47065;52.898;6.992;2023-03-01T07:17:24;-2.80;99.90
61201;DHT22;47065;52.898;6.992;2023-03-01T07:19:50;-2.70;99.90
61201;DHT22;47065;52.898;6.992;2023-03-01T07:22:15;-2.70;99.90
61201;DHT22;47065;52.898;6.992;2023-03-01T07:24:42;-2.70;99.90
61201;DHT22;47065;52.898;6.992;2023-03-01T07:27:07;-2.70;99.90
61201;DHT22;47065;52.898;6.992;2023-03-01T07:29:33;-2.60;99.90
61201;DHT22;47065;52.898;6.992;2023-03-01T07:32:02;-2.60;99.90
61201;DHT22;47065;52.898;6.992;2023-03-01T07:34:27;-2.50;99.90
61201;DHT22;47065;52.898;6.992;2023-03-01T07:36:53;-2.50;99.90
61201;DHT22;47065;52.898;6.992;2023-03-01T07:39:19;-2.40;99.90
61201;DHT22;47065;52.898;6.992;2023-03-01T07:41:44;-2.40;99.90
61201;DHT22;47065;52.898;6.992;2023-03-01T07:44:10;-2.30;99.90
61201;DHT22;47065;52.898;6.992;2023-03-01T07:46:36;-2.30;99.90
61201;DHT22;47065;52.898;6.992;2023-03-01T07:49:02;-2.20;99.90
61201;DHT22;47065;52.898;6.992;2023-03-01T07:51:27;-2.20;99.90
61201;DHT22;47065;52.898;6.992;2023-03-01T07:53:53;-2.10;99.90
61201;DHT22;47065;52.898;6.992;2023-03-01T07:56:18;-2.00;99.90
61201;DHT22;47065;52.898;6.992;2023-03-01T07:58:45;-1.90;99.90
61201;DHT22;47065;52.898;6.992;2023-03-01T08:01:13;-1.80;99.90
61201;DHT22;47065;52.898;6.992;2023-03-01T08:03:39;-1.70;99.90
61201;DHT22;47065;52.898;6.992;2023-03-01T08:06:07;-1.60;99.90
61201;DHT22;47065;52.898;6.992;2023-03-01T08:08:34;-1.60;99.90
61201;DHT22;47065;52.898;6.992;2023-03-01T08:11:01;-1.50;99.90
61201;DHT22;47065;52.898;6.992;2023-03-01T08:13:27;-1.40;99.90
61201;DHT22;47065;52.898;6.992;2023-03-01T08:15:53;-1.30;99.90
61201;DHT22;47065;52.898;6.992;2023-03-01T08:18:20;-1.20;99.90
61201;DHT22;47065;52.898;6.992;2023-03-01T08:20:46;-1.10;99.90
61201;DHT22;47065;52.898;6.992;2023-03-01T08:23:12;-1.00;99.90
61201;DHT22;47065;52.898;6.992;2023-03-01T08:25:38;-0.90;99.90
61201;DHT22;47065;52.898;6.992;2023-03-01T08:28:05;-0.80;99.90
61201;DHT22;47065;52.898;6.992;2023-03-01T08:30:31;-0.70;99.90
61201;DHT22;47065;52.898;6.992;2023-03-01T08:32:57;-0.60;99.90
61201;DHT22;47065;52.898;6.992;2023-03-01T08:35:23;-0.50;99.90
61201;DHT22;47065;52.898;6.992;2023-03-01T08:37:49;-0.40;99.90
61201;DHT22;47065;52.898;6.992;2023-03-01T08:40:14;-0.30;99.90
61201;DHT22;47065;52.898;6.992;2023-03-01T08:42:41;-0.10;99.90
61201;DHT22;47065;52.898;6.992;2023-03-01T08:45:09;0.00;99.90
61201;DHT22;47065;52.898;6.992;2023-03-01T08:47:35;0.20;99.90
61201;DHT22;47065;52.898;6.992;2023-03-01T08:50:01;0.40;99.90
61201;DHT22;47065;52.898;6.992;2023-03-01T08:52:26;0.70;99.90
61201;DHT22;47065;52.898;6.992;2023-03-01T08:54:52;0.90;99.90
61201;DHT22;47065;52.898;6.992;2023-03-01T08:57:18;1.20;99.90
61201;DHT22;47065;52.898;6.992;2023-03-01T08:59:44;1.50;99.90
61201;DHT22;47065;52.898;6.992;2023-03-01T09:02:15;1.80;99.90
61201;DHT22;47065;52.898;6.992;2023-03-01T09:04:41;2.10;99.90
61201;DHT22;47065;52.898;6.992;2023-03-01T09:07:08;2.40;99.90
61201;DHT22;47065;52.898;6.992;2023-03-01T09:09:34;2.70;99.90
61201;DHT22;47065;52.898;6.992;2023-03-01T09:12:00;2.90;99.90
61201;DHT22;47065;52.898;6.992;2023-03-01T09:14:27;3.30;99.90
61201;DHT22;47065;52.898;6.992;2023-03-01T09:16:52;3.70;99.90
61201;DHT22;47065;52.898;6.992;2023-03-01T09:19:18;4.10;99.90
61201;DHT22;47065;52.898;6.992;2023-03-01T09:21:44;4.40;99.90
61201;DHT22;47065;52.898;6.992;2023-03-01T09:24:19;4.70;99.90
61201;DHT22;47065;52.898;6.992;2023-03-01T09:26:45;4.90;99.90
61201;DHT22;47065;52.898;6.992;2023-03-01T09:29:14;5.10;99.90
61201;DHT22;47065;52.898;6.992;2023-03-01T09:31:40;5.40;99.90
61201;DHT22;47065;52.898;6.992;2023-03-01T09:34:07;5.80;99.90
61201;DHT22;47065;52.898;6.992;2023-03-01T09:36:33;6.20;99.90
61201;DHT22;47065;52.898;6.992;2023-03-01T09:38:59;6.80;99.90
61201;DHT22;47065;52.898;6.992;2023-03-01T09:47:03;9.00;99.90
61201;DHT22;47065;52.898;6.992;2023-03-01T09:49:38;8.90;99.90
61201;DHT22;47065;52.898;6.992;2023-03-01T09:52:40;8.60;99.90
61201;DHT22;47065;52.898;6.992;2023-03-01T09:55:20;8.40;99.90
61201;DHT22;47065;52.898;6.992;2023-03-01T09:57:54;8.20;99.90
61201;DHT22;47065;52.898;6.992;2023-03-01T10:00:41;8.10;99.90
61201;DHT22;47065;52.898;6.992;2023-03-01T10:03:16;8.00;99.90
61201;DHT22;47065;52.898;6.992;2023-03-01T10:08:40;8.10;99.90
61201;DHT22;47065;52.898;6.992;2023-03-01T10:11:26;8.10;99.90
61201;DHT22;47065;52.898;6.992;2023-03-01T10:13:58;8.00;99.90
61201;DHT22;47065;52.898;6.992;2023-03-01T10:16:53;8.10;99.90
61201;DHT22;47065;52.898;6.992;2023-03-01T10:19:27;8.10;99.90
61201;DHT22;47065;52.898;6.992;2023-03-01T10:21:54;8.10;99.90
61201;DHT22;47065;52.898;6.992;2023-03-01T10:24:22;8.10;99.90
61201;DHT22;47065;52.898;6.992;2023-03-01T10:26:54;8.20;99.90
61201;DHT22;47065;52.898;6.992;2023-03-01T10:29:25;8.20;99.90
61201;DHT22;47065;52.898;6.992;2023-03-01T10:31:53;8.30;99.90
61201;DHT22;47065;52.898;6.992;2023-03-01T10:34:27;8.40;99.90
61201;DHT22;47065;52.898;6.992;2023-03-01T10:36:57;8.50;99.90
61201;DHT22;47065;52.898;6.992;2023-03-01T10:39:25;8.60;99.90
61201;DHT22;47065;52.898;6.992;2023-03-01T10:44:36;8.70;99.90
61201;DHT22;47065;52.898;6.992;2023-03-01T10:47:02;8.70;99.90
61201;DHT22;47065;52.898;6.992;2023-03-01T10:49:28;8.80;99.90
61201;DHT22;47065;52.898;6.992;2023-03-01T10:51:53;8.80;99.90
61201;DHT22;47065;52.898;6.992;2023-03-01T10:54:31;8.90;99.90
61201;DHT22;47065;52.898;6.992;2023-03-01T10:57:02;9.00;99.60
61201;DHT22;47065;52.898;6.992;2023-03-01T10:59:37;9.00;94.10
61201;DHT22;47065;52.898;6.992;2023-03-01T11:04:34;9.10;99.90
61201;DHT22;47065;52.898;6.992;2023-03-01T11:07:01;9.10;99.90
61201;DHT22;47065;52.898;6.992;2023-03-01T11:09:31;9.10;99.90
61201;DHT22;47065;52.898;6.992;2023-03-01T11:12:04;9.20;99.90
61201;DHT22;47065;52.898;6.992;2023-03-01T11:14:36;9.30;99.70
61201;DHT22;47065;52.898;6.992;2023-03-01T11:19:28;9.30;97.00
61201;DHT22;47065;52.898;6.992;2023-03-01T11:27:31;9.40;93.60
61201;DHT22;47065;52.898;6.992;2023-03-01T11:32:29;9.50;97.20
61201;DHT22;47065;52.898;6.992;2023-03-01T11:35:02;9.50;94.60
61201;DHT22;47065;52.898;6.992;2023-03-01T11:40:10;9.70;92.50
61201;DHT22;47065;52.898;6.992;2023-03-01T11:45:11;9.70;90.40
61201;DHT22;47065;52.898;6.992;2023-03-01T11:53:28;9.90;83.20
61201;DHT22;47065;52.898;6.992;2023-03-01T11:56:04;9.90;86.60
61201;DHT22;47065;52.898;6.992;2023-03-01T12:10:15;10.10;79.10
61201;DHT22;47065;52.898;6.992;2023-03-01T12:13:18;10.10;77.20
61201;DHT22;47065;52.898;6.992;2023-03-01T12:18:34;10.00;77.30
61201;DHT22;47065;52.898;6.992;2023-03-01T12:21:23;9.90;77.10
61201;DHT22;47065;52.898;6.992;2023-03-01T12:26:37;10.00;78.00
61201;DHT22;47065;52.898;6.992;2023-03-01T12:29:18;10.00;81.00
61201;DHT22;47065;52.898;6.992;2023-03-01T12:35:09;9.90;80.30
61201;DHT22;47065;52.898;6.992;2023-03-01T12:37:46;9.90;77.60
61201;DHT22;47065;52.898;6.992;2023-03-01T12:51:24;9.70;80.80
61201;DHT22;47065;52.898;6.992;2023-03-01T12:53:55;9.70;84.50
61201;DHT22;47065;52.898;6.992;2023-03-01T12:56:22;9.70;84.50
61201;DHT22;47065;52.898;6.992;2023-03-01T12:59:00;9.80;85.80
61201;DHT22;47065;52.898;6.992;2023-03-01T13:01:52;9.80;83.40
61201;DHT22;47065;52.898;6.992;2023-03-01T13:07:34;9.70;83.40
61201;DHT22;47065;52.898;6.992;2023-03-01T13:17:56;9.70;80.10
61201;DHT22;47065;52.898;6.992;2023-03-01T13:20:31;9.60;83.70
61201;DHT22;47065;52.898;6.992;2023-03-01T13:23:07;9.60;86.00
61201;DHT22;47065;52.898;6.992;2023-03-01T13:25:33;9.60;88.50
61201;DHT22;47065;52.898;6.992;2023-03-01T13:31:00;9.70;80.00
61201;DHT22;47065;52.898;6.992;2023-03-01T13:35:52;9.60;81.40
61201;DHT22;47065;52.898;6.992;2023-03-01T13:41:03;9.60;78.60
61201;DHT22;47065;52.898;6.992;2023-03-01T13:43:36;9.50;81.40
61201;DHT22;47065;52.898;6.992;2023-03-01T13:46:21;9.60;81.70
61201;DHT22;47065;52.898;6.992;2023-03-01T13:48:51;9.50;81.50
61201;DHT22;47065;52.898;6.992;2023-03-01T13:51:25;9.60;86.50
61201;DHT22;47065;52.898;6.992;2023-03-01T13:53:51;9.50;86.50
61201;DHT22;47065;52.898;6.992;2023-03-01T13:56:20;9.60;83.50
61201;DHT22;47065;52.898;6.992;2023-03-01T13:58:53;9.50;82.30
61201;DHT22;47065;52.898;6.992;2023-03-01T14:03:50;9.50;80.90
61201;DHT22;47065;52.898;6.992;2023-03-01T14:06:21;9.40;80.50
61201;DHT22;47065;52.898;6.992;2023-03-01T14:08:49;9.30;82.20
61201;DHT22;47065;52.898;6.992;2023-03-01T14:17:17;9.30;76.10
61201;DHT22;47065;52.898;6.992;2023-03-01T14:19:26;9.30;80.00
61201;DHT22;47065;52.898;6.992;2023-03-01T14:24:35;9.20;80.80
61201;DHT22;47065;52.898;6.992;2023-03-01T14:27:03;9.20;83.20
61201;DHT22;47065;52.898;6.992;2023-03-01T14:29:36;9.10;85.30
61201;DHT22;47065;52.898;6.992;2023-03-01T14:32:09;9.10;84.30
61201;DHT22;47065;52.898;6.992;2023-03-01T14:34:35;9.10;84.80
61201;DHT22;47065;52.898;6.992;2023-03-01T14:37:17;9.00;87.10
61201;DHT22;47065;52.898;6.992;2023-03-01T14:39:43;9.00;86.80
61201;DHT22;47065;52.898;6.992;2023-03-01T14:42:09;8.90;87.30
61201;DHT22;47065;52.898;6.992;2023-03-01T14:44:35;8.90;90.00
61201;DHT22;47065;52.898;6.992;2023-03-01T14:47:03;8.80;90.90
61201;DHT22;47065;52.898;6.992;2023-03-01T14:49:30;8.80;90.70
61201;DHT22;47065;52.898;6.992;2023-03-01T14:52:02;8.70;90.50
61201;DHT22;47065;52.898;6.992;2023-03-01T14:54:43;8.70;91.80
61201;DHT22;47065;52.898;6.992;2023-03-01T14:57:25;8.70;90.30
61201;DHT22;47065;52.898;6.992;2023-03-01T14:59:55;8.60;92.00
61201;DHT22;47065;52.898;6.992;2023-03-01T15:02:24;8.60;92.50
61201;DHT22;47065;52.898;6.992;2023-03-01T15:05:02;8.50;93.40
61201;DHT22;47065;52.898;6.992;2023-03-01T15:07:32;8.50;94.20
61201;DHT22;47065;52.898;6.992;2023-03-01T15:10:00;8.50;94.90
61201;DHT22;47065;52.898;6.992;2023-03-01T15:12:36;8.40;95.70
61201;DHT22;47065;52.898;6.992;2023-03-01T15:15:20;8.30;96.70
61201;DHT22;47065;52.898;6.992;2023-03-01T15:17:50;8.30;96.50
61201;DHT22;47065;52.898;6.992;2023-03-01T15:20:18;8.20;95.40
61201;DHT22;47065;52.898;6.992;2023-03-01T15:22:47;8.10;96.40
61201;DHT22;47065;52.898;6.992;2023-03-01T15:25:23;8.10;97.00
61201;DHT22;47065;52.898;6.992;2023-03-01T15:27:50;8.00;97.20
61201;DHT22;47065;52.898;6.992;2023-03-01T15:30:20;7.90;97.30
61201;DHT22;47065;52.898;6.992;2023-03-01T15:32:46;7.90;98.70
61201;DHT22;47065;52.898;6.992;2023-03-01T15:35:41;7.90;99.20
61201;DHT22;47065;52.898;6.992;2023-03-01T15:40:52;7.80;99.90
61201;DHT22;47065;52.898;6.992;2023-03-01T15:46:22;7.70;99.90
61201;DHT22;47065;52.898;6.992;2023-03-01T15:48:56;7.60;99.90
61201;DHT22;47065;52.898;6.992;2023-03-01T15:51:31;7.60;99.90
61201;DHT22;47065;52.898;6.992;2023-03-01T15:54:00;7.60;99.90
61201;DHT22;47065;52.898;6.992;2023-03-01T15:56:29;7.50;99.90
61201;DHT22;47065;52.898;6.992;2023-03-01T15:58:59;7.50;99.90
61201;DHT22;47065;52.898;6.992;2023-03-01T16:01:24;7.50;99.90
61201;DHT22;47065;52.898;6.992;2023-03-01T16:03:51;7.40;99.90
61201;DHT22;47065;52.898;6.992;2023-03-01T16:06:16;7.40;99.90
61201;DHT22;47065;52.898;6.992;2023-03-01T16:08:42;7.30;99.90
61201;DHT22;47065;52.898;6.992;2023-03-01T16:11:17;7.30;99.90
61201;DHT22;47065;52.898;6.992;2023-03-01T16:13:43;7.20;99.90
61201;DHT22;47065;52.898;6.992;2023-03-01T16:16:11;7.20;99.90
61201;DHT22;47065;52.898;6.992;2023-03-01T16:18:47;7.10;99.90
61201;DHT22;47065;52.898;6.992;2023-03-01T16:21:20;7.10;99.90
61201;DHT22;47065;52.898;6.992;2023-03-01T16:23:46;7.10;99.90
61201;DHT22;47065;52.898;6.992;2023-03-01T16:26:12;7.00;99.90
61201;DHT22;47065;52.898;6.992;2023-03-01T16:28:42;7.00;99.90
61201;DHT22;47065;52.898;6.992;2023-03-01T16:31:08;6.90;99.90
61201;DHT22;47065;52.898;6.992;2023-03-01T16:33:34;6.90;99.90
61201;DHT22;47065;52.898;6.992;2023-03-01T16:36:11;6.80;99.90
61201;DHT22;47065;52.898;6.992;2023-03-01T16:38:37;6.80;99.90
61201;DHT22;47065;52.898;6.992;2023-03-01T16:41:11;6.70;99.90
61201;DHT22;47065;52.898;6.992;2023-03-01T16:43:37;6.60;99.90
61201;DHT22;47065;52.898;6.992;2023-03-01T16:46:10;6.60;99.90
61201;DHT22;47065;52.898;6.992;2023-03-01T16:48:35;6.50;99.90
61201;DHT22;47065;52.898;6.992;2023-03-01T16:51:01;6.50;99.90
61201;DHT22;47065;52.898;6.992;2023-03-01T16:53:28;6.40;99.90
61201;DHT22;47065;52.898;6.992;2023-03-01T16:55:55;6.30;99.90
61201;DHT22;47065;52.898;6.992;2023-03-01T16:58:21;6.20;99.90
61201;DHT22;47065;52.898;6.992;2023-03-01T17:00:51;6.20;99.90
61201;DHT22;47065;52.898;6.992;2023-03-01T17:03:16;6.10;99.90
61201;DHT22;47065;52.898;6.992;2023-03-01T17:05:42;6.00;99.90
61201;DHT22;47065;52.898;6.992;2023-03-01T17:08:08;6.00;99.90
61201;DHT22;47065;52.898;6.992;2023-03-01T17:10:34;5.90;99.90
61201;DHT22;47065;52.898;6.992;2023-03-01T17:12:59;5.90;99.90
61201;DHT22;47065;52.898;6.992;2023-03-01T17:15:25;5.80;99.90
61201;DHT22;47065;52.898;6.992;2023-03-01T17:17:50;5.80;99.90
61201;DHT22;47065;52.898;6.992;2023-03-01T17:20:17;5.70;99.90
61201;DHT22;47065;52.898;6.992;2023-03-01T17:22:43;5.70;99.90
61201;DHT22;47065;52.898;6.992;2023-03-01T17:25:09;5.60;99.90
61201;DHT22;47065;52.898;6.992;2023-03-01T17:27:37;5.60;99.90
61201;DHT22;47065;52.898;6.992;2023-03-01T17:30:04;5.60;99.90
61201;DHT22;47065;52.898;6.992;2023-03-01T17:32:29;5.50;99.90
61201;DHT22;47065;52.898;6.992;2023-03-01T17:34:55;5.50;99.90
61201;DHT22;47065;52.898;6.992;2023-03-01T17:37:21;5.40;99.90
61201;DHT22;47065;52.898;6.992;2023-03-01T17:39:47;5.30;99.90
61201;DHT22;47065;52.898;6.992;2023-03-01T17:42:12;5.10;99.90
61201;DHT22;47065;52.898;6.992;2023-03-01T17:44:38;5.00;99.90